createdAt,value
2022-09-28T00:01:19.744Z,98930.12
2022-09-28T00:04:22.443Z,98936.41
2022-09-28T00:07:24.532Z,98925.56
2022-09-28T00:10:26.922Z,98924.28
2022-09-28T00:13:31.626Z,98906.34
2022-09-28T00:16:36.210Z,98893.97
2022-09-28T00:19:42.698Z,98896.22
2022-09-28T00:22:45.048Z,98905.03
2022-09-28T00:25:47.112Z,98900.56
2022-09-28T00:28:59.106Z,98896.59
2022-09-28T00:32:04.186Z,98909.50
2022-09-28T00:35:07.010Z,98919.59
2022-09-28T00:38:09.414Z,98905.66
2022-09-28T00:41:12.572Z,98913.31
2022-09-28T00:44:26.614Z,98918.84
2022-09-28T00:47:51.986Z,98923.03
2022-09-28T00:50:54.102Z,98917.19
2022-09-28T00:53:56.962Z,98914.94
2022-09-28T00:57:01.154Z,98924.47
2022-09-28T01:00:05.097Z,98910.50
2022-09-28T01:03:08.696Z,98914.69
2022-09-28T01:06:17.656Z,98915.56
2022-09-28T01:09:21.881Z,98922.22
2022-09-28T01:12:24.531Z,98922.75
2022-09-28T01:15:29.632Z,98936.59
2022-09-28T01:18:55.226Z,98925.97
2022-09-28T01:22:12.201Z,98934.56
2022-09-28T01:25:39.598Z,98932.53
2022-09-28T01:28:44.293Z,98925.41
2022-09-28T01:31:52.866Z,98939.03
2022-09-28T01:34:57.971Z,98942.16
2022-09-28T01:38:18.508Z,98945.06
2022-09-28T01:41:22.530Z,98938.56
2022-09-28T01:44:28.877Z,98941.87
2022-09-28T01:47:35.961Z,98946.06
2022-09-28T01:50:42.205Z,98947.47
2022-09-28T01:53:50.124Z,98956.91
2022-09-28T01:57:17.170Z,98956.31
2022-09-28T02:00:21.044Z,98953.81
2022-09-28T02:03:31.929Z,98957.06
2022-09-28T02:06:45.915Z,98951.22
2022-09-28T02:09:59.432Z,98950.75
2022-09-28T02:13:08.812Z,98941.72
2022-09-28T02:16:20.070Z,98946.41
2022-09-28T02:19:27.351Z,98947.66
2022-09-28T02:22:37.239Z,98950.69
2022-09-28T02:25:45.652Z,98955.06
2022-09-28T02:28:48.151Z,98957.53
2022-09-28T02:31:52.076Z,98959.88
2022-09-28T02:34:55.719Z,98958.75
2022-09-28T02:37:58.061Z,98965.72
2022-09-28T02:41:21.623Z,98965.72
2022-09-28T02:44:47.237Z,98960.94
2022-09-28T02:48:03.991Z,98961.72
2022-09-28T02:51:27.179Z,98969.41
2022-09-28T02:54:47.778Z,98959.19
2022-09-28T02:58:11.706Z,98965.72
2022-09-28T03:01:34.768Z,98975.50
2022-09-28T03:04:56.470Z,98980.37
2022-09-28T03:08:04.187Z,98981.09
2022-09-28T03:11:17.861Z,98988.84
2022-09-28T03:14:22.125Z,98990.78
2022-09-28T03:17:24.830Z,98989.75
2022-09-28T03:20:28.395Z,99003.28
2022-09-28T03:23:31.760Z,98999.38
2022-09-28T03:26:38.688Z,98999.19
2022-09-28T03:29:41.181Z,99000.22
2022-09-28T03:32:44.067Z,98990.72
2022-09-28T03:35:48.435Z,98994.56
2022-09-28T03:38:56.739Z,98991.50
2022-09-28T03:42:02.499Z,98990.88
2022-09-28T03:45:06.343Z,98986.94
2022-09-28T03:48:08.822Z,98992.44
2022-09-28T03:51:12.300Z,98989.81
2022-09-28T03:54:14.721Z,98998.19
2022-09-28T03:57:16.842Z,98992.28
2022-09-28T04:00:19.453Z,98990.66
2022-09-28T04:03:21.891Z,98999.84
2022-09-28T04:06:24.992Z,99005.06
2022-09-28T04:09:27.505Z,98995.47
2022-09-28T04:12:29.853Z,98991.19
2022-09-28T04:15:32.263Z,98989.44
2022-09-28T04:18:35.134Z,98984.16
2022-09-28T04:21:38.175Z,98988.00
2022-09-28T04:24:42.115Z,98990.69
2022-09-28T04:28:03.166Z,98988.03
2022-09-28T04:31:10.216Z,98981.19
2022-09-28T04:34:17.178Z,98986.94
2022-09-28T04:37:19.413Z,98994.31
2022-09-28T04:40:21.911Z,98985.56
2022-09-28T04:43:24.282Z,98993.91
2022-09-28T04:46:26.811Z,98987.72
2022-09-28T04:49:29.459Z,98977.41
2022-09-28T04:52:32.114Z,98985.84
2022-09-28T04:55:34.287Z,98988.06
2022-09-28T04:58:37.556Z,98980.75
2022-09-28T05:01:39.942Z,98974.25
2022-09-28T05:04:44.014Z,98981.00
2022-09-28T05:07:46.500Z,98985.72
2022-09-28T05:10:49.150Z,98990.09
2022-09-28T05:13:51.253Z,98990.44
2022-09-28T05:16:54.541Z,98987.97
2022-09-28T05:19:59.191Z,98996.47
2022-09-28T05:23:01.703Z,99002.22
2022-09-28T05:26:04.274Z,98999.66
2022-09-28T05:29:06.655Z,99000.50
2022-09-28T05:32:09.808Z,99004.81
2022-09-28T05:35:12.369Z,99009.28
2022-09-28T05:38:14.536Z,99014.00
2022-09-28T05:41:16.901Z,99005.91
2022-09-28T05:44:19.078Z,99008.03
2022-09-28T05:47:22.815Z,99009.72
2022-09-28T05:50:25.393Z,99005.00
2022-09-28T05:53:27.938Z,99004.84
2022-09-28T05:56:31.238Z,99008.13
2022-09-28T05:59:35.136Z,99002.31
2022-09-28T06:02:37.549Z,99006.38
2022-09-28T06:05:41.013Z,99002.00
2022-09-28T06:08:44.000Z,99009.75
2022-09-28T06:11:53.230Z,99005.94
2022-09-28T06:14:56.984Z,99001.31
2022-09-28T06:18:07.185Z,98996.47
2022-09-28T06:21:11.298Z,99001.22
2022-09-28T06:24:15.289Z,98995.13
2022-09-28T06:27:17.648Z,98995.72
2022-09-28T06:30:20.102Z,98996.63
2022-09-28T06:33:22.201Z,99006.44
2022-09-28T06:36:24.566Z,99005.97
2022-09-28T06:39:26.657Z,99003.84
2022-09-28T06:42:29.342Z,99009.91
2022-09-28T06:45:32.698Z,99008.09
2022-09-28T06:48:36.509Z,99003.25
2022-09-28T06:51:38.787Z,99014.28
2022-09-28T06:54:42.192Z,99016.56
2022-09-28T06:57:44.799Z,99018.44
2022-09-28T07:00:49.904Z,99018.34
2022-09-28T07:03:55.526Z,99026.44
2022-09-28T07:06:59.782Z,99018.06
2022-09-28T07:10:03.607Z,99016.47
2022-09-28T07:13:10.832Z,99011.72
2022-09-28T07:16:16.774Z,99016.72
2022-09-28T07:19:19.212Z,99010.25
2022-09-28T07:22:33.229Z,99023.56
2022-09-28T07:25:45.385Z,99015.19
2022-09-28T07:28:55.958Z,99014.69
2022-09-28T07:32:00.247Z,99012.44
2022-09-28T07:35:08.535Z,99010.16
2022-09-28T07:38:11.093Z,99011.94
2022-09-28T07:41:14.252Z,99009.94
2022-09-28T07:44:18.988Z,99007.66
2022-09-28T07:47:32.238Z,99002.00
2022-09-28T07:50:52.308Z,99001.03
2022-09-28T07:53:54.803Z,99006.81
2022-09-28T07:56:58.581Z,99006.47
2022-09-28T08:00:02.212Z,99006.50
2022-09-28T08:03:04.929Z,99017.69
2022-09-28T08:06:11.090Z,99022.06
2022-09-28T08:09:13.435Z,99026.59
2022-09-28T08:12:22.657Z,99023.16
2022-09-28T08:15:25.592Z,99011.75
2022-09-28T08:18:28.163Z,99007.00
2022-09-28T08:21:45.559Z,98988.06
2022-09-28T08:24:48.853Z,98997.41
2022-09-28T08:27:52.492Z,98985.03
2022-09-28T08:31:00.592Z,98982.03
2022-09-28T08:34:03.535Z,98973.03
2022-09-28T08:37:09.183Z,98978.47
2022-09-28T08:40:18.944Z,98979.56
2022-09-28T08:43:31.309Z,98998.66
2022-09-28T08:46:38.695Z,98999.84
2022-09-28T08:49:48.536Z,99002.84
2022-09-28T08:52:57.567Z,99006.22
2022-09-28T08:56:04.004Z,99007.91
2022-09-28T08:59:14.572Z,99010.25
2022-09-28T09:02:34.074Z,99005.25
2022-09-28T09:06:18.183Z,98994.41
2022-09-28T09:09:36.695Z,98987.75
2022-09-28T09:13:03.388Z,98990.03
2022-09-28T09:16:22.780Z,98989.16
2022-09-28T09:19:36.184Z,98980.94
2022-09-28T09:22:47.873Z,98981.38
2022-09-28T09:25:55.202Z,98979.91
2022-09-28T09:29:13.630Z,98974.91
2022-09-28T09:32:53.315Z,98978.81
2022-09-28T09:36:28.066Z,98976.09
2022-09-28T09:40:00.577Z,98974.16
2022-09-28T09:43:30.873Z,98960.38
2022-09-28T09:46:49.615Z,98976.44
2022-09-28T09:50:05.556Z,98983.94
2022-09-28T09:53:26.206Z,98978.13
2022-09-28T09:57:03.756Z,98978.47
2022-09-28T10:00:14.022Z,98974.56
2022-09-28T10:03:28.225Z,98975.75
2022-09-28T10:06:36.327Z,98973.75
2022-09-28T10:09:46.558Z,98982.34
2022-09-28T10:12:51.966Z,98989.34
2022-09-28T10:15:55.460Z,98986.94
2022-09-28T10:18:58.388Z,98984.97
2022-09-28T10:22:20.640Z,98993.09
2022-09-28T10:25:24.017Z,98989.97
2022-09-28T10:28:40.499Z,98982.22
2022-09-28T10:31:49.199Z,98977.53
2022-09-28T10:34:53.402Z,98980.37
2022-09-28T10:38:01.642Z,98981.56
2022-09-28T10:41:13.521Z,98982.75
2022-09-28T10:44:19.210Z,98986.56
2022-09-28T10:47:25.759Z,98993.19
2022-09-28T10:50:28.879Z,98986.53
2022-09-28T10:53:36.979Z,98986.53
2022-09-28T10:56:40.840Z,98991.62
2022-09-28T10:59:43.370Z,98979.84
2022-09-28T11:02:46.888Z,98974.69
2022-09-28T11:05:54.642Z,98973.88
2022-09-28T11:09:02.840Z,98960.66
2022-09-28T11:12:07.047Z,98968.78
2022-09-28T11:15:19.643Z,98963.75
2022-09-28T11:18:34.422Z,98946.69
2022-09-28T11:21:43.264Z,98945.50
2022-09-28T11:24:45.710Z,98948.31
2022-09-28T11:27:51.589Z,98949.53
2022-09-28T11:30:54.502Z,98945.28
2022-09-28T11:34:12.874Z,98934.75
2022-09-28T11:37:37.242Z,98933.22
2022-09-28T11:40:58.342Z,98940.19
2022-09-28T11:44:03.261Z,98949.19
2022-09-28T11:47:43.281Z,98941.37
2022-09-28T11:50:52.253Z,98934.37
2022-09-28T11:54:14.751Z,98932.78
2022-09-28T11:57:23.846Z,98939.06
2022-09-28T12:00:28.640Z,98939.06
2022-09-28T12:03:40.854Z,98921.47
2022-09-28T12:07:05.055Z,98913.25
2022-09-28T12:10:15.013Z,98917.50
2022-09-28T12:13:22.673Z,98913.59
2022-09-28T12:17:03.706Z,98900.34
2022-09-28T12:20:07.143Z,98898.81
2022-09-28T12:23:21.055Z,98904.69
2022-09-28T12:26:45.014Z,98913.63
2022-09-28T12:30:20.317Z,98897.66
2022-09-28T12:33:22.474Z,98892.56
2022-09-28T12:36:30.192Z,98884.72
2022-09-28T12:39:57.434Z,98876.16
2022-09-28T12:43:19.243Z,98878.09
2022-09-28T12:46:40.430Z,98872.22
2022-09-28T12:50:38.182Z,98883.97
2022-09-28T12:54:13.669Z,98868.75
2022-09-28T12:57:34.780Z,98874.56
2022-09-28T13:00:57.344Z,98883.19
2022-09-28T13:04:16.039Z,98875.38
2022-09-28T13:07:39.554Z,98877.34
2022-09-28T13:11:07.712Z,98871.91
2022-09-28T13:14:28.551Z,98864.47
2022-09-28T13:18:01.665Z,98864.09
2022-09-28T13:21:13.339Z,98866.78
2022-09-28T13:24:32.666Z,98860.53
2022-09-28T13:27:40.488Z,98867.56
2022-09-28T13:30:44.919Z,98875.41
2022-09-28T13:33:48.395Z,98871.50
2022-09-28T13:37:19.782Z,98869.16
2022-09-28T13:41:10.715Z,98858.19
2022-09-28T13:44:13.111Z,98858.97
2022-09-28T13:47:27.450Z,98855.50
2022-09-28T13:50:45.426Z,98860.13
2022-09-28T13:54:17.678Z,98855.78
2022-09-28T13:57:47.031Z,98868.34
2022-09-28T14:00:53.651Z,98862.12
2022-09-28T14:04:10.512Z,98857.81
2022-09-28T14:07:21.073Z,98851.53
2022-09-28T14:10:44.436Z,98863.25
2022-09-28T14:14:08.449Z,98867.56
2022-09-28T14:17:23.451Z,98869.16
2022-09-28T14:20:29.457Z,98855.09
2022-09-28T14:23:44.625Z,98858.19
2022-09-28T14:27:06.422Z,98846.91
2022-09-28T14:30:11.916Z,98854.31
2022-09-28T14:33:20.525Z,98852.75
2022-09-28T14:36:58.518Z,98847.28
2022-09-28T14:40:27.033Z,98851.19
2022-09-28T14:43:44.693Z,98852.34
2022-09-28T14:46:48.076Z,98845.34
2022-09-28T14:50:00.689Z,98841.03
2022-09-28T14:53:23.862Z,98833.63
2022-09-28T14:56:32.633Z,98840.25
2022-09-28T14:59:42.797Z,98845.69
2022-09-28T15:02:51.817Z,98843.31
2022-09-28T15:05:54.306Z,98837.06
2022-09-28T15:08:56.724Z,98835.84
2022-09-28T15:12:13.040Z,98837.00
2022-09-28T15:15:30.331Z,98832.28
2022-09-28T15:19:08.495Z,98822.56
2022-09-28T15:22:16.480Z,98822.16
2022-09-28T15:25:21.633Z,98815.47
2022-09-28T15:28:24.767Z,98816.62
2022-09-28T15:31:30.505Z,98810.00
2022-09-28T15:34:54.677Z,98810.34
2022-09-28T15:37:56.917Z,98811.53
2022-09-28T15:41:02.815Z,98804.09
2022-09-28T15:44:30.102Z,98806.81
2022-09-28T15:47:33.970Z,98816.16
2022-09-28T15:50:36.686Z,98813.06
2022-09-28T15:53:50.415Z,98820.06
2022-09-28T15:56:59.428Z,98820.41
2022-09-28T16:00:01.945Z,98819.66
2022-09-28T16:03:16.454Z,98809.47
2022-09-28T16:06:18.817Z,98810.19
2022-09-28T16:09:40.245Z,98807.84
2022-09-28T16:12:46.472Z,98813.31
2022-09-28T16:15:55.492Z,98811.69
2022-09-28T16:19:00.686Z,98812.06
2022-09-28T16:22:06.834Z,98807.72
2022-09-28T16:25:18.985Z,98813.16
2022-09-28T16:28:48.719Z,98812.34
2022-09-28T16:31:53.072Z,98809.97
2022-09-28T16:35:10.833Z,98817.75
2022-09-28T16:38:14.930Z,98816.91
2022-09-28T16:41:21.203Z,98826.22
2022-09-28T16:44:26.947Z,98825.44
2022-09-28T16:47:33.986Z,98818.34
2022-09-28T16:50:36.314Z,98825.22
2022-09-28T16:53:57.080Z,98823.22
2022-09-28T16:57:00.427Z,98819.84
2022-09-28T17:00:02.633Z,98828.38
2022-09-28T17:03:14.113Z,98829.91
2022-09-28T17:06:18.443Z,98832.63
2022-09-28T17:09:23.333Z,98837.22
2022-09-28T17:12:28.906Z,98830.59
2022-09-28T17:15:31.773Z,98834.84
2022-09-28T17:18:37.271Z,98825.91
2022-09-28T17:21:39.612Z,98826.28
2022-09-28T17:24:41.733Z,98826.22
2022-09-28T17:27:46.334Z,98822.66
2022-09-28T17:30:48.413Z,98824.88
2022-09-28T17:33:51.177Z,98830.25
2022-09-28T17:36:53.378Z,98835.69
2022-09-28T17:39:55.737Z,98830.19
2022-09-28T17:42:59.198Z,98830.06
2022-09-28T17:46:02.171Z,98841.25
2022-09-28T17:49:05.935Z,98835.41
2022-09-28T17:52:08.512Z,98840.78
2022-09-28T17:55:10.675Z,98839.53
2022-09-28T17:58:19.249Z,98850.59
2022-09-28T18:01:21.365Z,98846.59
2022-09-28T18:04:47.603Z,98851.50
2022-09-28T18:07:47.799Z,98852.63
2022-09-28T18:10:50.651Z,98860.25
2022-09-28T18:13:52.786Z,98854.31
2022-09-28T18:16:55.364Z,98864.22
2022-09-28T18:19:57.444Z,98857.91
2022-09-28T18:22:59.839Z,98855.97
2022-09-28T18:26:02.005Z,98855.91
2022-09-28T18:29:04.431Z,98861.28
2022-09-28T18:32:06.537Z,98863.94
2022-09-28T18:35:10.267Z,98864.13
2022-09-28T18:38:12.359Z,98861.88
2022-09-28T18:41:16.099Z,98878.16
2022-09-28T18:44:18.295Z,98873.06
2022-09-28T18:47:20.706Z,98874.72
2022-09-28T18:50:23.210Z,98868.44
2022-09-28T18:53:25.844Z,98875.09
2022-09-28T18:56:27.987Z,98875.44
2022-09-28T18:59:30.399Z,98878.59
2022-09-28T19:02:32.622Z,98880.87
2022-09-28T19:05:35.093Z,98874.53
2022-09-28T19:08:37.262Z,98882.31
2022-09-28T19:11:39.571Z,98880.75
2022-09-28T19:14:41.663Z,98879.91
2022-09-28T19:17:46.287Z,98875.63
2022-09-28T19:20:48.329Z,98878.69
2022-09-28T19:23:51.969Z,98874.75
2022-09-28T19:26:54.254Z,98873.19
2022-09-28T19:29:56.578Z,98868.06
2022-09-28T19:32:58.659Z,98872.28
2022-09-28T19:36:03.485Z,98870.38
2022-09-28T19:39:07.102Z,98870.09
2022-09-28T19:42:09.401Z,98870.16
2022-09-28T19:45:11.472Z,98864.81
2022-09-28T19:48:13.806Z,98863.38
2022-09-28T19:51:15.883Z,98868.44
2022-09-28T19:54:18.748Z,98874.63
2022-09-28T19:57:21.334Z,98870.38
2022-09-28T20:00:23.692Z,98870.38
2022-09-28T20:03:26.582Z,98860.28
2022-09-28T20:06:29.024Z,98854.78
2022-09-28T20:09:32.586Z,98855.16
2022-09-28T20:12:34.626Z,98847.25
2022-09-28T20:15:37.252Z,98852.59
2022-09-28T20:18:43.596Z,98862.38
2022-09-28T20:21:48.049Z,98854.25
2022-09-28T20:24:50.164Z,98851.53
2022-09-28T20:27:52.882Z,98854.75
2022-09-28T20:30:55.082Z,98850.16
2022-09-28T20:33:57.556Z,98852.81
2022-09-28T20:36:59.730Z,98850.87
2022-09-28T20:40:02.146Z,98847.44
2022-09-28T20:43:07.230Z,98838.38
2022-09-28T20:46:10.386Z,98842.91
2022-09-28T20:49:12.500Z,98836.34
2022-09-28T20:52:14.889Z,98836.69
2022-09-28T20:55:16.962Z,98828.97
2022-09-28T20:58:19.290Z,98822.78
2022-09-28T21:01:23.759Z,98832.00
2022-09-28T21:04:26.992Z,98829.50
2022-09-28T21:07:29.039Z,98824.88
2022-09-28T21:10:31.923Z,98823.00
2022-09-28T21:13:33.989Z,98828.84
2022-09-28T21:16:36.912Z,98823.94
2022-09-28T21:19:38.971Z,98816.19
2022-09-28T21:22:41.340Z,98814.59
2022-09-28T21:25:45.581Z,98807.13
2022-09-28T21:28:47.908Z,98814.88
2022-09-28T21:31:50.022Z,98815.16
2022-09-28T21:34:52.488Z,98816.19
2022-09-28T21:37:55.022Z,98816.72
2022-09-28T21:40:59.432Z,98816.72
2022-09-28T21:44:01.701Z,98817.19
2022-09-28T21:47:04.102Z,98820.00
2022-09-28T21:50:06.735Z,98812.16
2022-09-28T21:53:09.062Z,98808.03
2022-09-28T21:56:12.735Z,98809.16
2022-09-28T21:59:15.068Z,98806.47
2022-09-28T22:02:17.216Z,98809.75
2022-09-28T22:05:19.724Z,98817.47
2022-09-28T22:08:22.113Z,98819.06
2022-09-28T22:11:27.012Z,98814.03
2022-09-28T22:14:29.103Z,98820.22
2022-09-28T22:17:31.495Z,98819.16
2022-09-28T22:20:33.595Z,98812.94
2022-09-28T22:23:37.587Z,98813.03
2022-09-28T22:26:40.359Z,98815.41
2022-09-28T22:29:43.039Z,98807.28
2022-09-28T22:32:45.100Z,98804.91
2022-09-28T22:35:49.093Z,98796.03
2022-09-28T22:38:51.547Z,98797.06
2022-09-28T22:41:53.880Z,98795.53
2022-09-28T22:44:55.966Z,98796.28
2022-09-28T22:47:58.307Z,98793.25
2022-09-28T22:51:01.332Z,98792.94
2022-09-28T22:54:03.962Z,98798.00
2022-09-28T22:57:06.034Z,98805.00
2022-09-28T23:00:08.699Z,98807.72
2022-09-28T23:03:10.976Z,98809.47
2022-09-28T23:06:16.473Z,98806.47
2022-09-28T23:09:18.614Z,98803.66
2022-09-28T23:12:21.032Z,98805.31
2022-09-28T23:15:23.168Z,98803.00
2022-09-28T23:18:28.192Z,98801.03
2022-09-28T23:21:31.172Z,98805.31
2022-09-28T23:24:33.474Z,98792.91
2022-09-28T23:27:35.552Z,98796.75
2022-09-28T23:30:38.138Z,98787.88
2022-09-28T23:33:40.307Z,98787.09
2022-09-28T23:36:42.678Z,98791.50
2022-09-28T23:39:44.775Z,98789.22
2022-09-28T23:42:47.113Z,98791.56
2022-09-28T23:45:49.534Z,98798.16
2022-09-28T23:48:52.119Z,98801.66
2022-09-28T23:51:56.035Z,98803.56
2022-09-28T23:54:58.443Z,98805.47
2022-09-28T23:58:00.517Z,98800.06
